createdAt,value
2024-03-09T00:02:03.081Z,20.75
2024-03-09T00:04:32.869Z,20.47
2024-03-09T00:07:02.503Z,21.09
2024-03-09T00:09:37.261Z,21.27
2024-03-09T00:12:10.930Z,20.87
2024-03-09T00:14:40.960Z,20.91
2024-03-09T00:17:10.672Z,20.99
2024-03-09T00:19:42.375Z,20.91
2024-03-09T00:22:12.244Z,21.32
2024-03-09T00:24:41.885Z,20.37
2024-03-09T00:27:13.765Z,21.20
2024-03-09T00:29:43.470Z,20.41
2024-03-09T00:32:13.917Z,21.32
2024-03-09T00:34:43.575Z,20.98
2024-03-09T00:37:14.320Z,20.99
2024-03-09T00:39:45.401Z,20.69
2024-03-09T00:42:22.179Z,20.53
2024-03-09T00:44:52.666Z,20.94
2024-03-09T00:47:23.420Z,20.64
2024-03-09T00:49:53.173Z,20.76
2024-03-09T00:52:22.835Z,20.91
2024-03-09T00:54:52.554Z,20.96
2024-03-09T00:57:23.558Z,20.23
2024-03-09T00:59:55.140Z,20.91
2024-03-09T01:02:24.968Z,20.91
2024-03-09T01:04:54.718Z,21.01
2024-03-09T01:07:26.508Z,20.13
2024-03-09T01:09:56.199Z,20.63
2024-03-09T01:12:26.550Z,20.23
2024-03-09T01:14:56.860Z,20.43
2024-03-09T01:17:29.670Z,20.12
2024-03-09T01:20:02.585Z,20.62
2024-03-09T01:22:32.420Z,20.55
2024-03-09T01:25:02.263Z,20.70
2024-03-09T01:27:31.964Z,20.36
2024-03-09T01:30:04.456Z,20.64
2024-03-09T01:32:36.885Z,20.16
2024-03-09T01:35:07.004Z,20.35
2024-03-09T01:37:36.791Z,20.43
2024-03-09T01:40:08.114Z,20.56
2024-03-09T01:42:37.824Z,20.59
2024-03-09T01:45:08.595Z,20.99
2024-03-09T01:47:39.573Z,20.51
2024-03-09T01:50:15.946Z,20.77
2024-03-09T01:52:50.884Z,20.73
2024-03-09T01:55:22.786Z,20.88
2024-03-09T01:57:53.404Z,20.57
2024-03-09T02:00:27.381Z,20.16
2024-03-09T02:02:58.523Z,20.73
2024-03-09T02:05:28.631Z,20.50
2024-03-09T02:07:58.474Z,20.95
2024-03-09T02:10:28.522Z,20.73
2024-03-09T02:13:00.610Z,20.40
2024-03-09T02:15:32.642Z,19.96
2024-03-09T02:18:02.995Z,20.23
2024-03-09T02:20:34.088Z,20.60
2024-03-09T02:23:04.154Z,20.46
2024-03-09T02:25:34.024Z,20.21
2024-03-09T02:28:04.933Z,20.14
2024-03-09T02:30:35.756Z,20.25
2024-03-09T02:33:10.913Z,20.07
2024-03-09T02:35:40.648Z,20.50
2024-03-09T02:38:11.884Z,20.45
2024-03-09T02:40:41.814Z,20.50
2024-03-09T02:43:14.462Z,20.16
2024-03-09T02:45:45.231Z,20.41
2024-03-09T02:48:15.010Z,20.13
2024-03-09T02:50:45.217Z,20.58
2024-03-09T02:53:15.138Z,19.93
2024-03-09T02:55:45.608Z,20.47
2024-03-09T02:58:18.119Z,20.43
2024-03-09T03:00:49.132Z,20.06
2024-03-09T03:03:39.763Z,20.44
2024-03-09T03:06:09.726Z,20.29
2024-03-09T03:08:39.448Z,20.38
2024-03-09T03:11:09.114Z,20.37
2024-03-09T03:13:38.883Z,20.32
2024-03-09T03:16:09.226Z,19.81
2024-03-09T03:18:39.057Z,19.96
2024-03-09T03:21:08.802Z,20.15
2024-03-09T03:23:38.974Z,20.33
2024-03-09T03:26:11.243Z,20.71
2024-03-09T03:28:41.492Z,20.42
2024-03-09T03:31:12.306Z,20.41
2024-03-09T03:33:42.076Z,20.58
2024-03-09T03:36:18.306Z,19.83
2024-03-09T03:38:49.304Z,19.46
2024-03-09T03:41:21.098Z,20.07
2024-03-09T03:43:50.968Z,20.74
2024-03-09T03:46:20.782Z,20.33
2024-03-09T03:48:50.521Z,20.44
2024-03-09T03:51:20.904Z,20.52
2024-03-09T03:53:51.207Z,20.30
2024-03-09T03:56:26.919Z,20.20
2024-03-09T03:59:02.523Z,20.51
2024-03-09T04:01:32.242Z,20.27
2024-03-09T04:04:02.032Z,20.48
2024-03-09T04:06:31.701Z,20.45
2024-03-09T04:09:01.704Z,20.61
2024-03-09T04:11:38.623Z,20.48
2024-03-09T04:14:08.397Z,20.33
2024-03-09T04:16:38.785Z,20.51
2024-03-09T04:19:09.654Z,20.41
2024-03-09T04:21:40.880Z,20.56
2024-03-09T04:24:12.463Z,20.81
2024-03-09T04:26:43.206Z,20.67
2024-03-09T04:29:13.556Z,20.32
2024-03-09T04:31:43.304Z,20.78
2024-03-09T04:34:14.662Z,20.77
2024-03-09T04:36:48.688Z,20.40
2024-03-09T04:39:21.510Z,20.29
2024-03-09T04:41:51.293Z,19.89
2024-03-09T04:44:27.517Z,20.13
2024-03-09T04:47:04.505Z,20.68
2024-03-09T04:49:34.138Z,20.28
2024-03-09T04:52:03.838Z,19.72
2024-03-09T04:54:35.273Z,20.25
2024-03-09T04:57:06.868Z,20.39
2024-03-09T04:59:36.580Z,20.38
2024-03-09T05:02:06.894Z,20.10
2024-03-09T05:04:36.737Z,20.25
2024-03-09T05:07:06.942Z,20.12
2024-03-09T05:09:39.710Z,20.28
2024-03-09T05:12:10.337Z,19.67
2024-03-09T05:14:40.046Z,20.38
2024-03-09T05:17:09.753Z,20.34
2024-03-09T05:19:40.644Z,20.48
2024-03-09T05:22:10.597Z,20.34
2024-03-09T05:24:40.289Z,20.24
2024-03-09T05:27:10.217Z,20.11
2024-03-09T05:29:42.923Z,20.47
2024-03-09T05:32:13.397Z,19.97
2024-03-09T05:34:46.465Z,20.34
2024-03-09T05:37:16.258Z,20.77
2024-03-09T05:39:45.971Z,20.31
2024-03-09T05:42:18.149Z,19.88
2024-03-09T05:44:48.320Z,20.31
2024-03-09T05:47:18.020Z,20.23
2024-03-09T05:49:49.635Z,20.13
2024-03-09T05:52:19.296Z,20.18
2024-03-09T05:55:09.189Z,20.32
2024-03-09T05:57:39.056Z,20.29
2024-03-09T06:00:11.240Z,20.47
2024-03-09T06:02:46.190Z,20.42
2024-03-09T06:05:18.358Z,20.28
2024-03-09T06:07:48.950Z,20.45
2024-03-09T06:10:19.911Z,20.51
2024-03-09T06:12:57.172Z,20.24
2024-03-09T06:15:28.249Z,20.13
2024-03-09T06:18:01.414Z,20.09
2024-03-09T06:20:32.108Z,20.53
2024-03-09T06:23:03.115Z,20.55
2024-03-09T06:25:33.532Z,20.73
2024-03-09T06:28:08.105Z,20.42
2024-03-09T06:30:39.829Z,20.54
2024-03-09T06:33:09.727Z,20.13
2024-03-09T06:35:40.827Z,20.70
2024-03-09T06:38:12.742Z,20.41
2024-03-09T06:40:47.992Z,20.41
2024-03-09T06:43:19.073Z,20.48
2024-03-09T06:45:50.630Z,20.62
2024-03-09T06:48:26.053Z,20.39
2024-03-09T06:50:56.761Z,20.42
2024-03-09T06:53:28.000Z,20.80
2024-03-09T06:56:06.046Z,20.48
2024-03-09T06:58:38.976Z,20.20
2024-03-09T07:01:08.831Z,20.70
2024-03-09T07:03:39.050Z,20.72
2024-03-09T07:06:10.624Z,20.67
2024-03-09T07:08:40.820Z,20.97
2024-03-09T07:11:10.569Z,20.65
2024-03-09T07:13:40.334Z,20.86
2024-03-09T07:16:10.400Z,20.72
2024-03-09T07:18:40.045Z,20.70
2024-03-09T07:21:12.975Z,20.88
2024-03-09T07:23:42.854Z,20.33
2024-03-09T07:26:16.529Z,20.71
2024-03-09T07:28:46.452Z,20.56
2024-03-09T07:31:17.883Z,21.12
2024-03-09T07:33:47.562Z,21.07
2024-03-09T07:36:17.220Z,20.86
2024-03-09T07:38:48.735Z,20.53
2024-03-09T07:41:19.284Z,21.00
2024-03-09T07:43:49.016Z,21.02
2024-03-09T07:46:18.814Z,20.90
2024-03-09T07:48:48.460Z,20.77
2024-03-09T07:51:18.170Z,20.98
2024-03-09T07:53:47.871Z,20.59
2024-03-09T07:56:19.408Z,20.81
2024-03-09T07:58:51.516Z,20.80
2024-03-09T08:01:21.402Z,21.26
2024-03-09T08:03:51.258Z,20.99
2024-03-09T08:06:21.341Z,20.73
2024-03-09T08:08:51.657Z,21.08
2024-03-09T08:11:25.403Z,20.54
2024-03-09T08:13:55.133Z,20.80
2024-03-09T08:16:24.904Z,20.76
2024-03-09T08:18:54.641Z,20.85
2024-03-09T08:21:25.779Z,20.79
2024-03-09T08:23:55.414Z,21.12
2024-03-09T08:26:25.114Z,20.85
2024-03-09T08:28:54.882Z,21.13
2024-03-09T08:31:26.957Z,21.15
2024-03-09T08:33:56.683Z,21.10
2024-03-09T08:36:26.515Z,21.53
2024-03-09T08:38:56.283Z,20.85
2024-03-09T08:41:26.163Z,20.96
2024-03-09T08:43:59.174Z,20.81
2024-03-09T08:46:29.087Z,20.67
2024-03-09T08:49:00.190Z,20.73
2024-03-09T08:51:29.948Z,21.33
2024-03-09T08:53:59.644Z,20.69
2024-03-09T08:56:29.852Z,21.00
2024-03-09T08:58:59.573Z,21.50
2024-03-09T09:01:29.294Z,20.75
2024-03-09T09:03:58.850Z,21.06
2024-03-09T09:06:28.696Z,20.80
2024-03-09T09:09:00.908Z,21.58
2024-03-09T09:11:31.082Z,21.38
2024-03-09T09:14:00.803Z,21.32
2024-03-09T09:16:30.544Z,21.03
2024-03-09T09:19:01.270Z,21.40
2024-03-09T09:21:33.199Z,21.19
2024-03-09T09:24:02.946Z,21.19
2024-03-09T09:26:32.932Z,21.37
2024-03-09T09:29:06.612Z,21.72
2024-03-09T09:31:36.453Z,21.62
2024-03-09T09:34:06.173Z,21.32
2024-03-09T09:36:38.514Z,21.67
2024-03-09T09:39:08.333Z,21.62
2024-03-09T09:41:39.260Z,21.87
2024-03-09T09:44:14.310Z,21.28
2024-03-09T09:46:44.173Z,21.23
2024-03-09T09:49:14.768Z,21.23
2024-03-09T09:51:47.991Z,21.42
2024-03-09T09:54:19.254Z,21.67
2024-03-09T09:56:49.223Z,21.27
2024-03-09T09:59:19.996Z,21.39
2024-03-09T10:01:49.761Z,21.55
2024-03-09T10:04:20.045Z,21.38
2024-03-09T10:06:50.675Z,21.75
2024-03-09T10:09:35.052Z,21.39
2024-03-09T10:12:10.005Z,22.06
2024-03-09T10:14:39.149Z,21.23
2024-03-09T10:17:14.916Z,21.74
2024-03-09T10:19:48.256Z,21.50
2024-03-09T10:22:18.177Z,21.48
2024-03-09T10:24:59.259Z,22.12
2024-03-09T10:27:33.292Z,21.63
2024-03-09T10:30:17.092Z,21.95
2024-03-09T10:32:47.279Z,21.30
2024-03-09T10:35:17.511Z,21.93
2024-03-09T10:37:58.948Z,21.43
2024-03-09T10:40:29.907Z,21.50
2024-03-09T10:42:59.891Z,21.58
2024-03-09T10:45:32.521Z,21.32
2024-03-09T10:48:10.120Z,21.55
2024-03-09T10:50:46.833Z,21.58
2024-03-09T10:53:30.391Z,22.02
2024-03-09T10:56:22.457Z,21.96
2024-03-09T10:58:55.481Z,22.09
2024-03-09T11:01:26.358Z,21.58
2024-03-09T11:03:56.267Z,22.28
2024-03-09T11:06:25.931Z,21.61
2024-03-09T11:08:57.566Z,21.91
2024-03-09T11:11:34.539Z,21.56
2024-03-09T11:14:10.772Z,22.07
2024-03-09T11:16:40.598Z,21.86
2024-03-09T11:19:16.644Z,21.84
2024-03-09T11:21:48.334Z,21.52
2024-03-09T11:24:25.291Z,22.08
2024-03-09T11:26:59.250Z,21.77
2024-03-09T11:29:41.685Z,22.19
2024-03-09T11:32:14.776Z,22.38
2024-03-09T11:34:45.042Z,22.37
2024-03-09T11:37:16.002Z,21.93
2024-03-09T11:39:47.312Z,21.62
2024-03-09T11:42:21.182Z,22.46
2024-03-09T11:44:50.983Z,21.94
2024-03-09T11:47:23.631Z,21.79
2024-03-09T11:49:53.317Z,22.30
2024-03-09T11:52:28.880Z,22.14
2024-03-09T11:55:05.590Z,22.30
2024-03-09T11:57:43.423Z,22.46
2024-03-09T12:00:16.741Z,22.18
2024-03-09T12:02:46.496Z,21.84
2024-03-09T12:05:19.430Z,21.96
2024-03-09T12:07:52.609Z,22.69
2024-03-09T12:10:25.563Z,22.69
2024-03-09T12:12:56.042Z,21.92
2024-03-09T12:15:25.819Z,22.70
2024-03-09T12:17:55.566Z,21.97
2024-03-09T12:20:25.543Z,22.60
2024-03-09T12:22:55.289Z,22.78
2024-03-09T12:25:26.159Z,22.37
2024-03-09T12:27:56.217Z,22.50
2024-03-09T12:30:26.769Z,22.31
2024-03-09T12:32:57.299Z,22.27
2024-03-09T12:35:27.002Z,22.66
2024-03-09T12:37:56.794Z,22.24
2024-03-09T12:40:28.219Z,22.19
2024-03-09T12:42:57.916Z,22.79
2024-03-09T12:45:29.146Z,22.30
2024-03-09T12:48:02.959Z,22.64
2024-03-09T12:50:34.764Z,22.89
2024-03-09T12:53:05.654Z,22.50
2024-03-09T12:55:38.547Z,22.65
2024-03-09T12:58:09.737Z,22.97
2024-03-09T13:00:39.481Z,23.00
2024-03-09T13:03:09.245Z,22.38
2024-03-09T13:05:38.981Z,22.98
2024-03-09T13:08:10.242Z,22.69
2024-03-09T13:10:42.824Z,22.71
2024-03-09T13:13:16.731Z,23.30
2024-03-09T13:16:01.141Z,22.60
2024-03-09T13:18:31.188Z,22.76
2024-03-09T13:21:01.420Z,22.80
2024-03-09T13:23:33.331Z,23.02
2024-03-09T13:26:02.992Z,23.00
2024-03-09T13:28:33.807Z,23.23
2024-03-09T13:31:06.727Z,22.99
2024-03-09T13:33:44.550Z,22.38
2024-03-09T13:36:25.866Z,22.90
2024-03-09T13:38:55.606Z,23.23
2024-03-09T13:41:26.894Z,23.12
2024-03-09T13:43:59.243Z,22.07
2024-03-09T13:46:29.050Z,23.05
2024-03-09T13:48:59.129Z,23.15
2024-03-09T13:51:29.168Z,22.65
2024-03-09T13:53:58.813Z,23.16
2024-03-09T13:56:31.107Z,23.55
2024-03-09T13:59:00.737Z,23.59
2024-03-09T14:01:32.460Z,23.08
2024-03-09T14:04:02.179Z,23.11
2024-03-09T14:06:50.542Z,22.97
2024-03-09T14:09:35.772Z,22.68
2024-03-09T14:12:05.722Z,23.43
2024-03-09T14:14:35.425Z,22.88
2024-03-09T14:17:07.015Z,22.85
2024-03-09T14:19:36.729Z,22.86
2024-03-09T14:22:13.705Z,23.00
2024-03-09T14:24:46.963Z,23.38
2024-03-09T14:27:20.736Z,22.93
2024-03-09T14:29:55.749Z,23.00
2024-03-09T14:32:27.553Z,23.17
2024-03-09T14:34:57.256Z,22.54
2024-03-09T14:37:26.986Z,23.35
2024-03-09T14:39:56.599Z,23.38
2024-03-09T14:42:26.330Z,23.61
2024-03-09T14:44:57.154Z,22.95
2024-03-09T14:47:30.196Z,23.89
2024-03-09T14:50:00.080Z,23.32
2024-03-09T14:52:31.542Z,23.11
2024-03-09T14:55:01.736Z,22.71
2024-03-09T14:57:31.668Z,22.82
2024-03-09T15:00:02.941Z,22.95
2024-03-09T15:02:32.970Z,23.52
2024-03-09T15:05:03.190Z,23.67
2024-03-09T15:07:35.121Z,23.44
2024-03-09T15:10:04.960Z,23.61
2024-03-09T15:12:34.593Z,23.21
2024-03-09T15:15:05.054Z,22.63
2024-03-09T15:17:35.056Z,23.99
2024-03-09T15:20:05.749Z,23.68
2024-03-09T15:22:35.619Z,23.19
2024-03-09T15:25:15.796Z,22.98
2024-03-09T15:27:45.751Z,22.74
2024-03-09T15:30:16.280Z,23.49
2024-03-09T15:32:45.978Z,23.31
2024-03-09T15:35:17.968Z,23.29
2024-03-09T15:37:47.841Z,23.96
2024-03-09T15:40:20.108Z,23.05
2024-03-09T15:42:50.387Z,23.63
2024-03-09T15:45:23.328Z,23.05
2024-03-09T15:47:53.737Z,23.11
2024-03-09T15:50:30.619Z,22.87
2024-03-09T15:53:00.621Z,23.88
2024-03-09T15:55:36.335Z,24.10
2024-03-09T15:58:07.222Z,23.68
2024-03-09T16:00:44.619Z,23.97
2024-03-09T16:03:14.462Z,23.85
2024-03-09T16:05:44.292Z,23.34
2024-03-09T16:08:18.153Z,23.72
2024-03-09T16:10:49.177Z,24.06
2024-03-09T16:13:19.113Z,23.42
2024-03-09T16:15:54.474Z,24.11
2024-03-09T16:18:27.414Z,23.58
2024-03-09T16:20:57.080Z,23.48
2024-03-09T16:23:26.750Z,23.40
2024-03-09T16:25:56.494Z,23.68
2024-03-09T16:28:29.287Z,23.87
2024-03-09T16:31:02.539Z,23.96
2024-03-09T16:33:31.793Z,23.96
2024-03-09T16:36:01.911Z,23.96
2024-03-09T16:38:31.694Z,23.36
2024-03-09T16:41:03.920Z,23.91
2024-03-09T16:43:36.661Z,24.18
2024-03-09T16:46:09.828Z,23.84
2024-03-09T16:48:39.517Z,23.35
2024-03-09T16:51:11.964Z,23.26
2024-03-09T16:53:42.674Z,23.63
2024-03-09T16:56:16.573Z,23.14
2024-03-09T16:58:46.510Z,23.93
2024-03-09T17:01:16.349Z,23.47
2024-03-09T17:03:46.073Z,23.70
2024-03-09T17:06:18.250Z,23.92
2024-03-09T17:08:47.991Z,23.64
2024-03-09T17:11:28.358Z,23.58
2024-03-09T17:14:00.384Z,23.66
2024-03-09T17:16:30.453Z,23.20
2024-03-09T17:19:00.110Z,23.67
2024-03-09T17:21:31.264Z,24.15
2024-03-09T17:24:03.169Z,23.74
2024-03-09T17:26:35.039Z,24.27
2024-03-09T17:29:08.208Z,23.81
2024-03-09T17:31:40.746Z,24.26
2024-03-09T17:34:10.542Z,24.09
2024-03-09T17:36:40.668Z,23.97
2024-03-09T17:39:10.422Z,24.48
2024-03-09T17:41:40.356Z,23.36
2024-03-09T17:44:12.888Z,23.69
2024-03-09T17:46:42.780Z,23.92
2024-03-09T17:49:14.412Z,23.96
2024-03-09T17:51:46.817Z,24.24
2024-03-09T17:54:17.455Z,24.15
2024-03-09T17:56:47.592Z,23.67
2024-03-09T17:59:17.388Z,23.80
2024-03-09T18:01:47.300Z,24.54
2024-03-09T18:04:17.017Z,24.42
2024-03-09T18:06:47.822Z,23.38
2024-03-09T18:09:27.697Z,23.85
2024-03-09T18:11:57.449Z,23.67
2024-03-09T18:14:29.182Z,24.76
2024-03-09T18:17:07.803Z,24.17
2024-03-09T18:19:37.584Z,24.24
2024-03-09T18:22:09.964Z,24.30
2024-03-09T18:24:40.555Z,23.42
2024-03-09T18:27:11.105Z,24.16
2024-03-09T18:29:41.207Z,24.67
2024-03-09T18:32:11.030Z,23.79
2024-03-09T18:34:41.420Z,24.27
2024-03-09T18:37:11.284Z,24.34
2024-03-09T18:39:40.969Z,24.31
2024-03-09T18:42:11.517Z,24.36
2024-03-09T18:44:44.019Z,23.66
2024-03-09T18:47:13.958Z,24.41
2024-03-09T18:49:46.672Z,24.56
2024-03-09T18:52:16.631Z,23.90
2024-03-09T18:54:46.459Z,23.60
2024-03-09T18:57:16.210Z,24.06
2024-03-09T18:59:47.745Z,24.05
2024-03-09T19:02:17.577Z,24.33
2024-03-09T19:04:47.456Z,23.94
2024-03-09T19:07:17.165Z,23.68
2024-03-09T19:09:46.864Z,24.21
2024-03-09T19:12:16.709Z,24.63
2024-03-09T19:14:50.406Z,24.12
2024-03-09T19:17:23.069Z,23.83
2024-03-09T19:19:53.047Z,24.49
2024-03-09T19:22:22.822Z,24.37
2024-03-09T19:24:52.581Z,24.92
2024-03-09T19:27:22.809Z,24.32
2024-03-09T19:29:52.526Z,23.94
2024-03-09T19:32:22.380Z,24.53
2024-03-09T19:34:52.608Z,24.70
2024-03-09T19:37:22.390Z,24.09
2024-03-09T19:39:52.407Z,23.98
2024-03-09T19:42:24.282Z,24.61
2024-03-09T19:44:54.086Z,24.35
2024-03-09T19:47:24.271Z,24.40
2024-03-09T19:49:54.098Z,24.01
2024-03-09T19:52:25.095Z,24.64
2024-03-09T19:54:55.141Z,24.50
2024-03-09T19:57:26.825Z,23.97
2024-03-09T19:59:56.485Z,25.11
2024-03-09T20:02:29.080Z,24.93
2024-03-09T20:04:59.557Z,24.68
2024-03-09T20:07:32.900Z,24.25
2024-03-09T20:10:02.122Z,24.77
2024-03-09T20:12:31.922Z,23.88
2024-03-09T20:15:02.233Z,24.02
2024-03-09T20:17:32.427Z,24.37
2024-03-09T20:20:04.245Z,24.57
2024-03-09T20:22:36.120Z,23.69
2024-03-09T20:25:06.767Z,24.72
2024-03-09T20:27:37.096Z,25.14
2024-03-09T20:30:07.742Z,24.08
2024-03-09T20:32:37.486Z,24.83
2024-03-09T20:35:13.735Z,24.98
2024-03-09T20:37:43.731Z,24.26
2024-03-09T20:40:21.255Z,24.85
2024-03-09T20:42:52.612Z,24.78
2024-03-09T20:45:23.912Z,24.60
2024-03-09T20:47:56.618Z,24.46
2024-03-09T20:50:28.564Z,25.04
2024-03-09T20:53:05.268Z,24.59
2024-03-09T20:55:35.039Z,24.13
2024-03-09T20:58:05.138Z,24.18
2024-03-09T21:00:35.436Z,23.80
2024-03-09T21:03:05.101Z,24.98
2024-03-09T21:05:37.452Z,24.14
2024-03-09T21:08:07.776Z,24.63
2024-03-09T21:10:37.661Z,24.05
2024-03-09T21:13:07.487Z,24.31
2024-03-09T21:15:37.143Z,24.22
2024-03-09T21:18:07.229Z,24.34
2024-03-09T21:20:37.822Z,24.21
2024-03-09T21:23:11.223Z,24.13
2024-03-09T21:25:44.972Z,24.88
2024-03-09T21:28:19.066Z,24.66
2024-03-09T21:30:49.833Z,24.83
2024-03-09T21:33:19.564Z,24.88
2024-03-09T21:35:49.463Z,24.76
2024-03-09T21:38:19.212Z,24.23
2024-03-09T21:40:51.207Z,24.74
2024-03-09T21:43:20.890Z,24.29
2024-03-09T21:45:50.604Z,24.80
2024-03-09T21:48:20.429Z,24.36
2024-03-09T21:50:59.699Z,24.59
2024-03-09T21:53:38.026Z,24.18
2024-03-09T21:56:08.005Z,24.76
2024-03-09T21:58:41.565Z,25.21
2024-03-09T22:01:14.592Z,24.33
2024-03-09T22:03:44.348Z,24.94
2024-03-09T22:06:15.483Z,24.61
2024-03-09T22:08:45.458Z,24.38
2024-03-09T22:11:15.951Z,24.01
2024-03-09T22:13:46.651Z,24.45
2024-03-09T22:16:24.614Z,24.46
2024-03-09T22:18:55.882Z,24.69
2024-03-09T22:21:25.863Z,23.99
2024-03-09T22:23:55.597Z,24.10
2024-03-09T22:26:26.101Z,24.68
2024-03-09T22:28:55.979Z,24.73
2024-03-09T22:31:27.716Z,24.31
2024-03-09T22:33:57.428Z,24.58
2024-03-09T22:36:27.269Z,23.81
2024-03-09T22:38:56.907Z,24.90
2024-03-09T22:41:27.274Z,24.57
2024-03-09T22:43:57.235Z,24.53
2024-03-09T22:46:26.903Z,24.59
2024-03-09T22:48:56.620Z,24.32
2024-03-09T22:51:26.296Z,24.51
2024-03-09T22:53:56.156Z,24.39
2024-03-09T22:56:26.561Z,25.03
2024-03-09T22:58:56.328Z,24.67
2024-03-09T23:01:36.369Z,24.50
2024-03-09T23:04:06.115Z,24.76
2024-03-09T23:06:36.599Z,24.47
2024-03-09T23:09:09.703Z,24.92
2024-03-09T23:11:39.487Z,24.14
2024-03-09T23:14:09.237Z,24.56
2024-03-09T23:16:38.947Z,24.97
2024-03-09T23:19:11.048Z,24.14
2024-03-09T23:21:41.224Z,23.82
2024-03-09T23:24:11.003Z,24.11
2024-03-09T23:26:42.291Z,24.67
2024-03-09T23:29:12.128Z,24.44
2024-03-09T23:31:42.683Z,24.17
2024-03-09T23:34:12.298Z,24.49
2024-03-09T23:36:45.269Z,24.29
2024-03-09T23:39:15.069Z,24.34
2024-03-09T23:41:45.672Z,24.28
2024-03-09T23:44:15.340Z,24.96
2024-03-09T23:46:45.493Z,23.98
2024-03-09T23:49:16.811Z,24.81
2024-03-09T23:51:46.425Z,24.29
2024-03-09T23:54:16.455Z,24.94
2024-03-09T23:56:49.408Z,24.35
2024-03-09T23:59:19.150Z,23.89
